EW2233 Weather Reports


Display with metric or nautical units.
time (UTC)temp
F
wind
direction
speed
MPH
gust
MPH
rain 1hr
in
rain 24hr
in
rain mn
in
humidity
%
barometer
mb
20200531043008 48 134 0.0 5.0 0.00 0.00 0.00 62 1014.0
20200531040007 47 118 1.0 3.0 0.00 0.00 0.00 62 1014.0
20200531033007 47 143 1.0 3.0 0.00 0.00 0.00 62 1014.0
20200531030007 48 111 1.0 3.0 0.00 0.00 0.00 61 1014.0
20200531023007 48 112 1.0 3.0 0.00 0.00 0.00 60 1014.0
20200531020008 48 117 1.0 2.0 0.00 0.00 0.00 61 1014.0
20200531013008 48 134 0.0 2.0 0.00 0.00 0.00 61 1014.0
20200531010008 48 150 0.0 2.0 0.00 0.00 0.00 61 1014.0
20200531003007 49 134 0.0 2.0 0.00 0.00 0.00 60 1015.0
20200531000006 50 111 0.0 2.0 0.00 0.00 0.00 58 1015.0
20200530233006 51 134 1.0 5.0 0.00 0.00 0.00 56 1015.0
20200530230009 51 158 1.0 3.0 0.00 0.00 0.00 56 1015.0
20200530223007 51 98 0.0 2.0 0.00 0.00 0.00 56 1015.0
20200530220007 51 131 1.0 2.0 0.00 0.00 0.00 55 1014.0
20200530213007 53 102 1.0 2.0 0.00 0.00 0.00 53 1014.0
20200530210008 54 111 0.0 3.0 0.00 0.00 0.00 50 1015.0
20200530203008 54 111 1.0 3.0 0.00 0.00 0.00 48 1015.0
20200530193007 56 281 1.0 5.0 0.00 0.00 0.00 43 1015.0
20200530183007 60 278 2.0 3.0 0.00 0.00 0.00 38 1015.0
20200530180006 62 333 2.0 6.0 0.00 0.00 0.00 35 1015.0
20200530173007 62 303 2.0 5.0 0.00 0.00 0.00 34 1015.0